Time;durP1;ratioP1;P1;durP2;ratioP2;P2;SDS_P1;SDS_P2;PMS_P1;PMS_P2;Temp;Humidity;BMP_temperature;BMP_pressure;BME280_temperature;BME280_humidity;BME280_pressure;Samples;Min_cycle;Max_cycle;Signal;HPM_P1;HPM_P2
2023/10/13 00:00:29;;;;;;;3.00;1.77;;;20.50;77.80;;;;;;6277730;22;20019;-73
2023/10/13 00:03:02;;;;;;;3.70;1.55;;;20.50;77.80;;;;;;6278604;22;20269;-74
2023/10/13 00:05:30;;;;;;;4.75;2.10;;;20.50;77.80;;;;;;6277864;22;20378;-74
2023/10/13 00:08:00;;;;;;;3.72;1.58;;;20.50;77.80;;;;;;6279329;22;20061;-74
2023/10/13 00:10:30;;;;;;;3.97;1.85;;;20.40;77.80;;;;;;6279061;22;20023;-74
2023/10/13 00:13:06;;;;;;;3.55;1.70;;;20.40;77.70;;;;;;6278714;22;20316;-75
2023/10/13 00:15:40;;;;;;;2.33;1.60;;;20.50;77.80;;;;;;6280827;22;20479;-74
2023/10/13 00:18:12;;;;;;;4.35;1.77;;;20.50;77.80;;;;;;6308089;22;20027;-75
2023/10/13 00:20:39;;;;;;;4.18;1.75;;;20.40;77.70;;;;;;6280524;22;20015;-75
2023/10/13 00:23:06;;;;;;;3.63;1.63;;;20.40;77.70;;;;;;6281397;22;20022;-75
2023/10/13 00:25:39;;;;;;;3.60;1.55;;;20.40;77.70;;;;;;6280649;22;20025;-75
2023/10/13 00:28:08;;;;;;;3.40;1.65;;;20.40;77.70;;;;;;6305808;22;20023;-75
2023/10/13 00:30:34;;;;;;;3.50;1.90;;;20.50;77.80;;;;;;6308156;22;20015;-75
2023/10/13 00:32:59;;;;;;;5.82;1.70;;;20.40;77.80;;;;;;6280569;22;20026;-75
2023/10/13 00:35:29;;;;;;;3.97;1.77;;;20.40;77.80;;;;;;6279885;22;20038;-75
2023/10/13 00:38:03;;;;;;;3.17;1.95;;;20.40;77.80;;;;;;6280474;22;20102;-75
2023/10/13 00:42:55;;;;;;;4.95;1.80;;;20.40;77.70;;;;;;6280610;22;20397;-75
2023/10/13 00:45:23;;;;;;;4.15;1.70;;;20.40;77.80;;;;;;6280410;22;20467;-75
2023/10/13 00:47:49;;;;;;;4.25;1.50;;;20.40;77.80;;;;;;6279609;22;20344;-74
2023/10/13 00:50:17;;;;;;;3.28;1.70;;;20.40;77.80;;;;;;6254970;22;20062;-74
2023/10/13 00:52:46;;;;;;;3.70;1.90;;;20.40;77.80;;;;;;6255225;22;20069;-74
2023/10/13 00:55:12;;;;;;;3.58;1.88;;;20.40;77.70;;;;;;6280610;22;20073;-74
2023/10/13 00:57:40;;;;;;;2.65;1.90;;;20.40;77.80;;;;;;6229728;22;20419;-74
2023/10/13 01:00:18;;;;;;;3.40;1.80;;;20.40;77.80;;;;;;6254699;22;20019;-74
2023/10/13 01:02:56;;;;;;;3.05;1.85;;;20.40;77.80;;;;;;6279937;22;20019;-74
2023/10/13 01:05:25;;;;;;;2.70;1.95;;;20.40;77.80;;;;;;6280348;22;20019;-74
2023/10/13 01:07:54;;;;;;;4.43;1.85;;;20.40;77.80;;;;;;6308606;22;20019;-74
2023/10/13 01:10:25;;;;;;;3.35;1.90;;;20.40;77.80;;;;;;6306817;22;20498;-74
2023/10/13 01:12:52;;;;;;;3.40;1.80;;;20.40;77.80;;;;;;6280742;22;20484;-74
2023/10/13 01:15:20;;;;;;;4.30;2.05;;;20.40;77.80;;;;;;6307522;22;20415;-75
2023/10/13 01:17:46;;;;;;;5.15;2.10;;;20.30;77.70;;;;;;6279678;22;20022;-74
2023/10/13 01:20:21;;;;;;;3.65;2.10;;;20.30;77.70;;;;;;6307754;22;20015;-74
2023/10/13 01:22:55;;;;;;;3.38;1.98;;;20.30;77.70;;;;;;6279777;22;20103;-74
2023/10/13 01:25:27;;;;;;;2.75;1.70;;;20.30;77.70;;;;;;6279563;22;20069;-74
2023/10/13 01:27:53;;;;;;;3.15;2.10;;;20.40;77.80;;;;;;6280636;22;20058;-74
2023/10/13 01:30:26;;;;;;;3.17;2.03;;;20.40;77.80;;;;;;6279068;22;20019;-74
2023/10/13 01:32:53;;;;;;;3.88;2.20;;;20.30;77.70;;;;;;6280399;22;20450;-74
2023/10/13 01:35:19;;;;;;;2.80;1.90;;;20.30;77.70;;;;;;6280199;22;20098;-74
2023/10/13 01:37:45;;;;;;;5.10;2.28;;;20.30;77.70;;;;;;6279037;22;20094;-74
2023/10/13 01:40:12;;;;;;;3.35;2.20;;;20.30;77.70;;;;;;6280071;22;20023;-74
2023/10/13 01:42:39;;;;;;;5.03;2.05;;;20.30;77.70;;;;;;6307965;22;20053;-74
2023/10/13 01:45:07;;;;;;;2.90;1.98;;;20.30;77.70;;;;;;6279108;22;20019;-74
2023/10/13 01:47:33;;;;;;;3.85;1.92;;;20.30;77.70;;;;;;6308011;22;20016;-74
2023/10/13 01:50:12;;;;;;;3.80;2.33;;;20.30;77.70;;;;;;6280239;22;20022;-74
2023/10/13 01:52:38;;;;;;;3.33;2.00;;;20.30;77.70;;;;;;6253910;22;20148;-74
2023/10/13 01:55:06;;;;;;;4.20;2.10;;;20.30;77.70;;;;;;6280282;22;20061;-74
2023/10/13 01:57:32;;;;;;;5.00;1.98;;;20.30;77.70;;;;;;6280318;22;20477;-73
2023/10/13 02:00:04;;;;;;;3.70;2.20;;;20.30;77.70;;;;;;6279156;22;20381;-73
2023/10/13 02:02:30;;;;;;;3.30;2.20;;;20.30;77.70;;;;;;6280009;22;20052;-74
2023/10/13 02:04:56;;;;;;;4.07;1.92;;;20.30;77.80;;;;;;6306054;22;20023;-73
2023/10/13 02:07:27;;;;;;;2.95;1.88;;;20.30;77.80;;;;;;6279889;22;20011;-74
2023/10/13 02:09:54;;;;;;;3.42;2.17;;;20.30;77.80;;;;;;6254685;22;20039;-74
2023/10/13 02:12:26;;;;;;;3.97;2.20;;;20.30;77.80;;;;;;6278983;22;20458;-74
2023/10/13 02:14:51;;;;;;;2.97;1.90;;;20.30;77.80;;;;;;6279954;22;20019;-74
2023/10/13 02:17:21;;;;;;;4.95;1.80;;;20.30;77.80;;;;;;6279834;22;20015;-74
2023/10/13 02:19:46;;;;;;;3.10;1.67;;;20.30;77.80;;;;;;6306415;22;20019;-74
2023/10/13 02:22:24;;;;;;;3.72;1.98;;;20.30;77.80;;;;;;6279734;22;20080;-74
2023/10/13 02:24:52;;;;;;;3.07;2.00;;;20.30;77.80;;;;;;6279919;22;20019;-75
2023/10/13 02:27:17;;;;;;;3.55;1.88;;;20.30;77.80;;;;;;6306282;22;20043;-76
2023/10/13 02:29:49;;;;;;;3.67;2.10;;;20.30;77.80;;;;;;6279892;22;20366;-76
2023/10/13 02:32:20;;;;;;;2.88;1.83;;;20.30;77.80;;;;;;6279788;22;20144;-75
2023/10/13 02:34:46;;;;;;;3.22;2.08;;;20.30;77.80;;;;;;6278926;22;20011;-75
2023/10/13 02:37:13;;;;;;;5.75;2.10;;;20.30;77.80;;;;;;6279382;22;20332;-75
2023/10/13 02:39:41;;;;;;;3.65;2.10;;;20.30;77.80;;;;;;6279455;22;20015;-75
2023/10/13 02:42:07;;;;;;;3.13;2.03;;;20.30;77.80;;;;;;6278693;22;20019;-75
2023/10/13 02:44:36;;;;;;;3.55;2.15;;;20.30;77.80;;;;;;6279338;22;20047;-75
2023/10/13 02:47:13;;;;;;;2.63;1.80;;;20.20;77.70;;;;;;6278587;22;20043;-75
2023/10/13 02:49:43;;;;;;;3.58;1.73;;;20.30;77.80;;;;;;6279850;22;20050;-74
2023/10/13 02:52:09;;;;;;;3.65;1.90;;;20.20;77.70;;;;;;6278792;22;20023;-75
2023/10/13 02:54:39;;;;;;;3.70;1.77;;;20.20;77.80;;;;;;6278668;22;20011;-74
2023/10/13 02:57:05;;;;;;;4.30;2.03;;;20.30;77.80;;;;;;6279761;22;20015;-75
2023/10/13 02:59:34;;;;;;;3.25;1.90;;;20.20;77.70;;;;;;6279146;22;20038;-74
2023/10/13 03:02:17;;;;;;;3.78;2.10;;;20.30;77.80;;;;;;6278377;22;20015;-75
2023/10/13 03:04:59;;;;;;;2.72;1.80;;;20.20;77.80;;;;;;6279722;22;20025;-75
2023/10/13 03:07:30;;;;;;;3.45;2.10;;;20.30;77.80;;;;;;6279525;22;20073;-75
2023/10/13 03:10:01;;;;;;;3.72;2.17;;;20.20;77.80;;;;;;6278640;22;20012;-74
2023/10/13 03:12:32;;;;;;;4.10;2.28;;;20.20;77.80;;;;;;6279236;22;20023;-74
2023/10/13 03:15:11;;;;;;;3.97;2.20;;;20.20;77.80;;;;;;6279555;22;20042;-74
2023/10/13 03:17:37;;;;;;;2.30;1.80;;;20.20;77.80;;;;;;6279584;22;20060;-75
2023/10/13 03:20:05;;;;;;;3.53;2.30;;;20.20;77.80;;;;;;6279531;22;20019;-74
2023/10/13 03:22:31;;;;;;;5.38;2.15;;;20.20;77.70;;;;;;6305520;22;20025;-75
2023/10/13 03:25:09;;;;;;;3.42;2.22;;;20.20;77.80;;;;;;6279423;22;20029;-75
2023/10/13 03:27:40;;;;;;;3.85;2.13;;;20.20;77.80;;;;;;6279563;22;20023;-75
2023/10/13 03:30:13;;;;;;;4.72;2.22;;;20.20;77.80;;;;;;6278505;22;20074;-75
2023/10/13 03:32:43;;;;;;;3.55;2.20;;;20.20;77.80;;;;;;6279429;22;20030;-75
2023/10/13 03:35:23;;;;;;;3.13;2.10;;;20.20;77.80;;;;;;6279630;22;20229;-74
2023/10/13 03:37:49;;;;;;;3.53;2.40;;;20.20;77.80;;;;;;6278751;22;20023;-75
2023/10/13 03:45:24;;;;;;;2.90;2.08;;;20.20;77.80;;;;;;6277707;22;20116;-75
2023/10/13 03:47:51;;;;;;;3.42;2.20;;;20.20;77.80;;;;;;6307066;22;20015;-75
2023/10/13 03:50:29;;;;;;;3.83;2.50;;;20.20;77.80;;;;;;6280341;22;20019;-74
2023/10/13 03:52:57;;;;;;;2.80;1.98;;;20.20;77.80;;;;;;6281525;22;20019;-75
2023/10/13 03:55:26;;;;;;;4.05;2.05;;;20.20;77.80;;;;;;6281102;22;20343;-74
2023/10/13 03:57:55;;;;;;;2.97;1.90;;;20.20;77.80;;;;;;6307849;22;20043;-74
2023/10/13 04:00:24;;;;;;;3.95;2.45;;;20.20;77.80;;;;;;6280472;22;20042;-74
2023/10/13 04:05:38;;;;;;;;;;;20.20;77.80;;;;;;6279113;22;20039;-74
2023/10/13 04:16:52;;;;;;;3.38;2.10;;;20.10;77.70;;;;;;6280148;22;20102;-73
2023/10/13 04:21:40;;;;;;;3.78;2.10;;;20.10;77.70;;;;;;6280492;22;20414;-74
2023/10/13 04:32:28;;;;;;;2.30;1.75;;;20.20;77.80;;;;;;6280617;22;20023;-75
2023/10/13 04:35:17;;;;;;;3.65;2.40;;;20.20;77.80;;;;;;6281289;22;20081;-75
2023/10/13 04:38:01;;;;;;;2.65;2.05;;;20.10;77.80;;;;;;6280970;22;20022;-74
2023/10/13 04:40:28;;;;;;;3.35;2.30;;;20.10;77.80;;;;;;6279766;22;20015;-75
2023/10/13 04:42:53;;;;;;;3.13;1.90;;;20.10;77.80;;;;;;6280906;22;20015;-75
2023/10/13 04:48:47;;;;;;;2.90;1.92;;;20.10;77.80;;;;;;6279852;22;20023;-75
2023/10/13 04:50:47;;;;;;;2.75;1.85;;;20.10;77.80;;;;;;6290597;22;20156;-75
2023/10/13 04:54:26;;;;;;;3.50;2.00;;;20.20;77.90;;;;;;6308406;22;20022;-74
2023/10/13 05:02:01;;;;;;;2.85;2.08;;;20.10;77.80;;;;;;6274397;22;20024;-73
2023/10/13 05:04:38;;;;;;;2.92;1.90;;;20.10;77.80;;;;;;6275038;22;20351;-73
2023/10/13 05:46:20;;;;;;;3.33;1.85;;;20.10;77.70;;;;;;6275311;22;20027;-76
2023/10/13 05:48:42;;;;;;;4.05;1.95;;;20.10;77.70;;;;;;6273816;22;20019;-75
2023/10/13 06:29:25;;;;;;;4.68;2.58;;;20.10;77.90;;;;;;6276444;22;20036;-86
2023/10/13 06:31:50;;;;;;;6.35;2.50;;;20.10;78.10;;;;;;6274820;22;20459;-85
2023/10/13 06:34:20;;;;;;;7.43;2.58;;;20.10;78.20;;;;;;6273331;22;20023;-75
2023/10/13 06:36:47;;;;;;;5.40;2.67;;;20.10;78.30;;;;;;6274682;22;20020;-77
2023/10/13 06:41:56;;;;;;;4.57;2.20;;;20.10;78.50;;;;;;6276671;22;20023;-73
2023/10/13 06:44:22;;;;;;;4.45;2.55;;;20.10;78.50;;;;;;6274085;22;20016;-79
2023/10/13 06:46:49;;;;;;;4.38;2.42;;;20.10;78.40;;;;;;6275126;22;20024;-86
2023/10/13 06:49:18;;;;;;;4.25;2.05;;;20.20;78.60;;;;;;6274344;22;20436;-77
2023/10/13 06:51:46;;;;;;;;;;;20.20;78.60;;;;;;6276985;22;20489;-82
2023/10/13 06:54:19;;;;;;;;;;;20.20;78.60;;;;;;6274032;22;19922;-80
2023/10/13 06:56:45;;;;;;;5.28;2.33;;;20.20;78.60;;;;;;6274521;22;19922;-77
2023/10/13 06:59:13;;;;;;;4.30;2.35;;;20.10;78.50;;;;;;6276261;22;20020;-78
2023/10/13 07:01:40;;;;;;;7.10;2.70;;;20.20;78.60;;;;;;6273544;22;20065;-82
2023/10/13 07:04:15;;;;;;;3.63;2.40;;;20.20;78.70;;;;;;6272447;22;20394;-83
2023/10/13 07:06:48;;;;;;;5.32;2.45;;;20.20;78.70;;;;;;6276566;22;20035;-81
2023/10/13 07:09:39;;;;;;;4.85;2.42;;;20.20;78.70;;;;;;6272927;22;20043;-86
2023/10/13 07:12:03;;;;;;;5.05;2.47;;;20.20;78.80;;;;;;6276243;22;20020;-85
2023/10/13 07:14:29;;;;;;;3.97;2.30;;;20.20;78.80;;;;;;6272048;22;20855;-78
2023/10/13 07:17:04;;;;;;;4.22;2.10;;;20.20;78.80;;;;;;6274518;22;20015;-85
2023/10/13 07:19:30;;;;;;;5.93;2.47;;;20.20;78.90;;;;;;6275573;22;20019;-84
2023/10/13 07:22:03;;;;;;;4.00;2.20;;;20.20;78.80;;;;;;6273727;22;20162;-86
2023/10/13 07:24:31;;;;;;;6.63;2.40;;;20.20;78.80;;;;;;6275965;22;20149;-86
2023/10/13 07:27:03;;;;;;;4.18;2.65;;;20.20;78.80;;;;;;6274527;22;20030;-75
2023/10/13 07:29:28;;;;;;;5.50;2.50;;;20.20;78.80;;;;;;6273062;22;20025;-83
2023/10/13 07:31:54;;;;;;;5.97;2.30;;;20.20;78.80;;;;;;6274357;22;20026;-80
2023/10/13 07:34:32;;;;;;;6.82;2.78;;;20.20;78.80;;;;;;6274399;22;20497;-71
2023/10/13 07:37:01;;;;;;;5.38;2.58;;;20.20;78.80;;;;;;6275528;22;20073;-84
2023/10/13 07:39:39;;;;;;;6.40;3.03;;;20.20;78.80;;;;;;6274227;22;20015;-84
2023/10/13 07:42:05;;;;;;;4.65;2.45;;;20.20;78.80;;;;;;6274850;22;20015;-85
2023/10/13 07:44:33;;;;;;;7.07;2.45;;;20.20;78.80;;;;;;6273397;22;20016;-84
2023/10/13 07:47:03;;;;;;;6.50;2.47;;;20.20;78.80;;;;;;6274487;22;20030;-85
2023/10/13 07:49:36;;;;;;;7.00;2.80;;;20.20;78.80;;;;;;6273347;22;20448;-82
2023/10/13 07:54:55;;;;;;;4.35;2.47;;;20.20;78.80;;;;;;6274966;22;20448;-84
2023/10/13 07:57:29;;;;;;;8.32;2.90;;;20.20;78.80;;;;;;6273665;22;20035;-84
2023/10/13 08:00:10;;;;;;;4.28;2.63;;;20.20;78.80;;;;;;6274273;22;20027;-81
2023/10/13 08:02:48;;;;;;;7.80;2.95;;;20.20;78.80;;;;;;6273476;22;20016;-85
2023/10/13 08:05:24;;;;;;;8.07;2.70;;;20.20;78.80;;;;;;6272716;22;20444;-85
2023/10/13 08:07:50;;;;;;;6.53;2.90;;;20.20;78.80;;;;;;6273796;22;20027;-85
2023/10/13 08:10:16;;;;;;;5.95;2.50;;;20.20;78.80;;;;;;6275213;22;20149;-83
2023/10/13 08:12:44;;;;;;;6.97;2.70;;;20.20;78.80;;;;;;6273134;22;20343;-85
2023/10/13 08:15:20;;;;;;;6.07;2.40;;;20.20;78.80;;;;;;6273258;22;20099;-85
2023/10/13 08:17:46;;;;;;;5.22;2.60;;;20.20;78.80;;;;;;6274464;22;20081;-84
2023/10/13 08:20:12;;;;;;;9.25;2.78;;;20.20;78.80;;;;;;6273591;22;20015;-84
2023/10/13 08:22:38;;;;;;;6.70;2.65;;;20.20;78.80;;;;;;6272637;22;20023;-84
2023/10/13 08:27:49;;;;;;;5.40;2.60;;;20.20;78.70;;;;;;6274066;22;20023;-84
2023/10/13 08:33:28;;;;;;;6.30;2.30;;;20.20;78.80;;;;;;6237969;22;20024;-83
2023/10/13 08:36:38;;;;;;;6.05;2.58;;;20.20;78.80;;;;;;6275791;22;20030;-75
2023/10/13 08:38:50;;;;;;;6.57;2.45;;;20.10;78.80;;;;;;6262656;22;20020;-77
2023/10/13 08:43:50;;;;;;;9.80;2.42;;;20.20;78.80;;;;;;6277643;22;20054;-68
2023/10/13 08:46:28;;;;;;;8.18;2.83;;;20.20;78.80;;;;;;6275125;22;20043;-68
2023/10/13 08:49:04;;;;;;;6.22;2.78;;;20.20;78.90;;;;;;6276970;22;20023;-67
2023/10/13 08:51:43;;;;;;;11.07;3.20;;;20.20;78.90;;;;;;6276583;22;20095;-68
2023/10/13 08:54:19;;;;;;;6.40;2.72;;;20.20;78.90;;;;;;6275498;22;20023;-69
2023/10/13 08:56:56;;;;;;;6.13;2.80;;;20.20;79.00;;;;;;6250730;22;20007;-69
2023/10/13 08:59:23;;;;;;;11.18;2.58;;;20.20;79.00;;;;;;6251022;22;20443;-69
2023/10/13 09:01:59;;;;;;;5.07;2.67;;;20.20;79.00;;;;;;6299625;22;20027;-69
2023/10/13 09:04:33;;;;;;;7.63;2.65;;;20.20;79.10;;;;;;6306856;22;20024;-69
2023/10/13 09:09:59;;;;;;;4.97;2.70;;;20.20;79.10;;;;;;6280663;22;20019;-67
2023/10/13 09:15:17;;;;;;;5.13;2.30;;;20.20;79.10;;;;;;6307331;22;20359;-68
2023/10/13 09:17:53;;;;;;;5.18;2.28;;;20.20;79.10;;;;;;6307586;22;20456;-68
2023/10/13 09:23:12;;;;;;;6.18;2.92;;;20.30;79.10;;;;;;6279626;22;20027;-68
2023/10/13 09:25:38;;;;;;;7.38;2.80;;;20.20;79.00;;;;;;6307142;22;20098;-67
2023/10/13 09:28:10;;;;;;;5.40;2.70;;;20.20;78.90;;;;;;6279408;22;20016;-67
2023/10/13 09:30:49;;;;;;;5.90;2.90;;;20.20;78.90;;;;;;6280730;22;20015;-68
2023/10/13 09:33:20;;;;;;;7.32;2.58;;;20.20;78.90;;;;;;6280429;22;20022;-68
2023/10/13 09:35:49;;;;;;;7.28;2.55;;;20.20;78.90;;;;;;6254619;22;20026;-68
2023/10/13 09:38:15;;;;;;;5.35;2.60;;;20.30;79.00;;;;;;6308317;22;20011;-66
2023/10/13 09:40:49;;;;;;;7.25;2.70;;;20.30;78.90;;;;;;6308193;22;20078;-69
2023/10/13 09:43:19;;;;;;;6.05;2.63;;;20.20;79.10;;;;;;6306518;22;20092;-69
2023/10/13 09:48:40;;;;;;;8.02;3.10;;;20.30;79.30;;;;;;6279918;22;20023;-64
2023/10/13 09:51:10;;;;;;;8.70;2.83;;;20.30;79.40;;;;;;6307206;22;20047;-65
2023/10/13 09:53:38;;;;;;;18.02;4.90;;;20.30;79.50;;;;;;6230915;22;20339;-66
2023/10/13 09:56:14;;;;;;;14.02;4.93;;;20.30;79.60;;;;;;6280245;22;20064;-66
2023/10/13 09:58:51;;;;;;;17.10;5.45;;;20.30;79.70;;;;;;6256670;22;20439;-65
2023/10/13 10:01:30;;;;;;;15.00;4.63;;;20.30;79.80;;;;;;6279494;22;20016;-67
2023/10/13 10:04:16;;;;;;;18.45;5.38;;;20.40;79.80;;;;;;6259999;22;20033;-69
2023/10/13 10:06:52;;;;;;;16.75;5.40;;;20.40;79.90;;;;;;6255263;22;20027;-65
2023/10/13 10:09:21;;;;;;;26.95;7.85;;;20.40;79.90;;;;;;6280302;22;20022;-65
2023/10/13 10:12:13;;;;;;;17.33;5.70;;;20.40;79.90;;;;;;6254602;22;20026;-66
2023/10/13 10:14:58;;;;;;;17.02;6.65;;;20.40;80.00;;;;;;6280385;22;20042;-65
2023/10/13 10:17:29;;;;;;;15.25;5.50;;;20.50;80.00;;;;;;6254509;22;20020;-65
2023/10/13 10:19:55;;;;;;;17.13;6.25;;;20.50;80.00;;;;;;6256090;22;20454;-65
2023/10/13 10:22:35;;;;;;;15.55;5.93;;;20.50;80.00;;;;;;6279983;22;20015;-65
2023/10/13 10:25:21;;;;;;;16.80;5.25;;;20.50;79.90;;;;;;6307086;22;20023;-65
2023/10/13 10:27:57;;;;;;;12.95;5.47;;;20.50;80.00;;;;;;6307709;22;20023;-65
2023/10/13 10:30:27;;;;;;;18.02;6.80;;;20.50;80.10;;;;;;6279758;22;20068;-65
2023/10/13 10:32:59;;;;;;;14.75;4.57;;;20.50;80.10;;;;;;6306406;22;20030;-65
2023/10/13 10:35:29;;;;;;;15.77;6.15;;;20.50;80.20;;;;;;6279867;22;20382;-65
2023/10/13 10:38:03;;;;;;;14.70;5.25;;;20.60;80.20;;;;;;6277362;22;20050;-69
2023/10/13 10:40:47;;;;;;;13.10;5.88;;;20.50;80.00;;;;;;6277959;22;20020;-69
2023/10/13 10:43:17;;;;;;;12.07;5.75;;;20.50;79.90;;;;;;6257949;22;20019;-68
2023/10/13 10:45:49;;;;;;;17.17;5.38;;;20.50;80.00;;;;;;6305731;22;20078;-70
2023/10/13 10:48:18;;;;;;;12.90;5.20;;;20.50;80.00;;;;;;6306699;22;20021;-69
2023/10/13 10:50:54;;;;;;;12.98;5.35;;;20.50;80.60;;;;;;6279382;22;20026;-68
2023/10/13 10:53:22;;;;;;;11.18;4.85;;;20.60;80.10;;;;;;6306041;22;20079;-69
2023/10/13 10:55:48;;;;;;;;;;;20.60;80.20;;;;;;6280877;22;20309;-70
2023/10/13 10:58:28;;;;;;;11.60;5.10;;;20.50;80.00;;;;;;6279518;22;19965;-71
2023/10/13 11:01:19;;;;;;;8.63;4.55;;;20.60;80.10;;;;;;6305963;22;20095;-70
2023/10/13 11:03:59;;;;;;;11.18;5.15;;;20.60;80.10;;;;;;6307027;22;20017;-69
2023/10/13 11:06:27;;;;;;;11.68;5.05;;;20.60;80.20;;;;;;6276549;22;20023;-70
2023/10/13 11:09:27;;;;;;;14.32;4.80;;;20.60;80.20;;;;;;6279058;22;20077;-68
2023/10/13 11:11:57;;;;;;;12.20;4.78;;;20.60;80.20;;;;;;6306017;22;20027;-69
2023/10/13 11:14:27;;;;;;;14.93;4.90;;;20.60;80.20;;;;;;6277562;22;20515;-69
2023/10/13 11:16:54;;;;;;;11.07;4.85;;;20.60;80.20;;;;;;6306120;22;20023;-69
2023/10/13 11:19:39;;;;;;;9.60;4.45;;;20.60;80.30;;;;;;6279063;22;20023;-69
2023/10/13 11:22:33;;;;;;;10.50;4.00;;;20.60;80.30;;;;;;6278578;22;20097;-69
2023/10/13 11:24:59;;;;;;;13.48;5.25;;;20.60;80.30;;;;;;6279348;22;20019;-69
2023/10/13 11:30:20;;;;;;;12.68;4.80;;;20.60;80.30;;;;;;6306588;22;20027;-69
2023/10/13 11:32:56;;;;;;;12.10;4.75;;;20.60;80.30;;;;;;6306209;22;20046;-69
2023/10/13 11:35:23;;;;;;;9.68;4.50;;;20.60;80.30;;;;;;6278203;22;20463;-69
2023/10/13 11:43:21;;;;;;;10.15;4.43;;;20.60;80.30;;;;;;6305508;22;20027;-69
2023/10/13 11:46:12;;;;;;;8.07;3.97;;;20.60;80.30;;;;;;6279171;22;20090;-69
2023/10/13 11:48:39;;;;;;;9.95;4.78;;;20.60;80.30;;;;;;6305772;22;20019;-69
2023/10/13 11:51:08;;;;;;;9.82;3.90;;;20.70;80.30;;;;;;6279237;22;20034;-69
2023/10/13 11:53:37;;;;;;;11.15;4.22;;;20.70;80.30;;;;;;6279240;22;20011;-68
2023/10/13 11:56:08;;;;;;;10.35;4.13;;;20.70;80.30;;;;;;6278379;22;20046;-69
2023/10/13 11:58:34;;;;;;;9.23;4.13;;;20.70;80.30;;;;;;6278991;22;20003;-69
2023/10/13 12:09:52;;;;;;;11.25;4.57;;;20.70;80.20;;;;;;6279353;22;20019;-68
2023/10/13 12:12:00;;;;;;;10.73;4.30;;;20.70;80.20;;;;;;6267754;22;20027;-68
2023/10/13 12:14:29;;;;;;;11.57;4.25;;;20.70;80.20;;;;;;6280554;22;20400;-67
2023/10/13 12:16:55;;;;;;;12.70;4.63;;;20.70;80.20;;;;;;6280110;22;20015;-68
2023/10/13 12:19:26;;;;;;;11.18;4.72;;;20.70;80.20;;;;;;6280882;22;20057;-68
2023/10/13 12:21:55;;;;;;;8.73;4.32;;;20.70;80.30;;;;;;6281167;22;20078;-70
2023/10/13 12:29:56;;;;;;;10.38;4.40;;;20.70;80.20;;;;;;6280803;22;20023;-70
2023/10/13 12:32:30;;;;;;;11.98;4.95;;;20.70;80.20;;;;;;6279728;22;20022;-68
2023/10/13 12:37:49;;;;;;;22.77;9.05;;;20.70;80.20;;;;;;6280441;22;20347;-67
2023/10/13 12:54:04;;;;;;;19.48;6.78;;;20.80;80.60;;;;;;6279847;22;20027;-66
2023/10/13 12:56:30;;;;;;;23.42;7.28;;;20.80;80.50;;;;;;6280144;22;20145;-67
2023/10/13 12:58:55;;;;;;;28.17;6.80;;;20.80;80.50;;;;;;6279387;22;20395;-66
2023/10/13 13:01:22;;;;;;;20.80;6.50;;;20.80;80.60;;;;;;6307732;22;20451;-64
2023/10/13 13:03:49;;;;;;;26.33;7.30;;;20.80;80.60;;;;;;6308228;22;20093;-66
2023/10/13 13:06:29;;;;;;;20.88;6.43;;;20.80;80.40;;;;;;6278977;22;20023;-69
2023/10/13 13:08:58;;;;;;;20.17;6.60;;;20.90;80.30;;;;;;6280601;22;20056;-69
2023/10/13 13:11:24;;;;;;;15.63;5.75;;;20.80;80.30;;;;;;6279743;22;20015;-71
2023/10/13 13:13:50;;;;;;;13.63;5.80;;;20.90;80.30;;;;;;6306020;22;20523;-69
2023/10/13 13:16:20;;;;;;;16.27;6.38;;;20.90;80.30;;;;;;6280127;22;20011;-69
2023/10/13 13:18:45;;;;;;;20.25;6.40;;;20.80;80.10;;;;;;6280149;22;20016;-69
2023/10/13 13:21:22;;;;;;;14.00;5.93;;;20.90;80.20;;;;;;6278382;22;20007;-71
2023/10/13 13:23:48;;;;;;;17.35;6.45;;;20.90;80.20;;;;;;6308090;22;20090;-69
2023/10/13 13:26:17;;;;;;;24.13;6.68;;;20.90;80.10;;;;;;6279924;22;20019;-67
2023/10/13 13:28:52;;;;;;;17.75;6.85;;;20.90;80.10;;;;;;6279388;22;20047;-70
2023/10/13 13:31:18;;;;;;;19.60;6.65;;;20.90;80.10;;;;;;6307440;22;20377;-66
2023/10/13 13:33:43;;;;;;;22.33;6.22;;;20.90;80.10;;;;;;6307991;22;20022;-67
2023/10/13 13:36:15;;;;;;;24.38;7.65;;;20.90;80.10;;;;;;6279234;22;20347;-66
2023/10/13 13:38:49;;;;;;;21.02;6.63;;;20.90;80.10;;;;;;6280447;22;20334;-68
2023/10/13 13:41:18;;;;;;;18.83;6.43;;;20.90;80.20;;;;;;6279193;22;20443;-69
2023/10/13 13:43:54;;;;;;;20.00;6.78;;;20.90;80.20;;;;;;6280239;22;20069;-66
2023/10/13 13:46:41;;;;;;;17.90;6.65;;;20.90;80.20;;;;;;6280100;22;20106;-68
2023/10/13 13:49:07;;;;;;;16.60;6.63;;;20.90;80.20;;;;;;6279440;22;20094;-66
2023/10/13 13:51:33;;;;;;;16.73;5.95;;;20.90;80.10;;;;;;6280478;22;20015;-68
2023/10/13 13:53:59;;;;;;;13.48;6.32;;;20.90;80.10;;;;;;6307699;22;20019;-67
2023/10/13 13:56:26;;;;;;;18.30;6.22;;;20.90;80.10;;;;;;6278861;22;20015;-66
2023/10/13 13:58:53;;;;;;;19.02;5.97;;;20.90;80.10;;;;;;6280000;22;20016;-68
2023/10/13 14:01:19;;;;;;;13.68;5.68;;;20.80;80.00;;;;;;6279619;22;20030;-66
2023/10/13 14:03:46;;;;;;;15.35;6.05;;;20.90;80.10;;;;;;6306239;22;20015;-69
2023/10/13 14:06:34;;;;;;;20.00;6.50;;;20.90;80.10;;;;;;6306695;22;20019;-70
2023/10/13 14:09:02;;;;;;;17.88;6.40;;;20.90;80.10;;;;;;6279670;22;20025;-70
2023/10/13 14:14:11;;;;;;;15.30;6.82;;;20.90;80.00;;;;;;6307343;22;20023;-70
2023/10/13 14:16:44;;;;;;;16.85;6.43;;;20.80;80.00;;;;;;6306562;22;20049;-70
2023/10/13 14:19:12;;;;;;;16.35;6.65;;;20.80;80.00;;;;;;6306997;22;20023;-68
2023/10/13 14:21:38;;;;;;;14.70;5.97;;;20.90;80.00;;;;;;6307782;22;20057;-66
2023/10/13 14:24:13;;;;;;;16.13;5.95;;;20.90;80.00;;;;;;6278744;22;20020;-65
2023/10/13 14:26:39;;;;;;;14.75;6.47;;;20.80;80.00;;;;;;6307006;22;20026;-75
2023/10/13 14:29:08;;;;;;;14.77;6.32;;;20.80;79.90;;;;;;6278724;22;20016;-68
2023/10/13 14:31:36;;;;;;;17.50;6.22;;;20.80;79.90;;;;;;6306446;22;20019;-69
2023/10/13 14:34:01;;;;;;;;;;;20.90;79.90;;;;;;6280678;22;20022;-67
2023/10/13 14:36:34;;;;;;;16.42;5.85;;;20.80;79.70;;;;;;6279825;22;19918;-69
2023/10/13 14:39:00;;;;;;;21.90;6.80;;;20.80;79.90;;;;;;6279237;22;20027;-70
2023/10/13 14:41:26;;;;;;;16.95;6.03;;;20.80;79.80;;;;;;6279645;22;20015;-75
2023/10/13 14:43:51;;;;;;;13.73;5.60;;;20.80;79.80;;;;;;6279753;22;20102;-70
2023/10/13 14:46:17;;;;;;;14.90;6.30;;;20.80;79.80;;;;;;6278896;22;20023;-71
2023/10/13 14:48:43;;;;;;;17.48;5.78;;;20.80;79.70;;;;;;6278763;22;20439;-71
2023/10/13 14:51:13;;;;;;;14.80;6.28;;;20.80;79.80;;;;;;6277353;22;20037;-70
2023/10/13 14:53:43;;;;;;;16.13;6.28;;;20.80;79.70;;;;;;6304043;22;20031;-75
2023/10/13 14:56:10;;;;;;;17.35;6.82;;;20.80;79.70;;;;;;6306481;22;20007;-72
2023/10/13 14:58:36;;;;;;;18.92;7.50;;;20.80;79.80;;;;;;6305545;22;20015;-69
2023/10/13 15:01:03;;;;;;;15.80;6.78;;;20.80;79.80;;;;;;6278843;22;20370;-72
2023/10/13 15:03:30;;;;;;;18.88;6.43;;;20.80;79.80;;;;;;6306975;22;20072;-70
2023/10/13 15:05:55;;;;;;;16.40;6.18;;;20.80;79.80;;;;;;6306389;22;20023;-69
2023/10/13 15:08:21;;;;;;;16.65;7.10;;;20.80;79.80;;;;;;6306397;22;20034;-68
2023/10/13 15:10:46;;;;;;;21.10;8.38;;;20.80;79.80;;;;;;6279584;22;20049;-68
2023/10/13 15:13:12;;;;;;;25.88;9.20;;;20.80;79.90;;;;;;6278500;22;20015;-68
2023/10/13 15:15:39;;;;;;;22.02;9.07;;;20.80;80.00;;;;;;6307666;22;20019;-68
2023/10/13 15:18:04;;;;;;;19.77;8.85;;;20.70;80.20;;;;;;6307460;22;20058;-68
2023/10/13 15:20:30;;;;;;;23.27;8.80;;;20.80;80.50;;;;;;6305867;22;20027;-69
2023/10/13 15:22:59;;;;;;;24.38;9.00;;;20.80;80.70;;;;;;6307365;22;20011;-69
2023/10/13 15:25:31;;;;;;;20.27;7.93;;;20.80;80.70;;;;;;6306657;22;20444;-69
2023/10/13 15:28:03;;;;;;;20.33;7.95;;;20.80;80.70;;;;;;6279065;22;20041;-68
2023/10/13 15:30:44;;;;;;;21.55;7.53;;;20.80;80.70;;;;;;6306813;22;20026;-69
2023/10/13 15:33:12;;;;;;;19.83;7.40;;;20.80;80.80;;;;;;6279193;22;20574;-69
2023/10/13 15:35:42;;;;;;;20.55;7.57;;;20.80;80.80;;;;;;6278224;22;20016;-73
2023/10/13 15:38:10;;;;;;;16.52;7.70;;;20.70;80.70;;;;;;6279114;22;20015;-70
2023/10/13 15:40:42;;;;;;;20.60;7.18;;;20.80;80.70;;;;;;6278506;22;20019;-75
2023/10/13 15:43:07;;;;;;;18.77;8.45;;;20.80;80.80;;;;;;6306892;22;20061;-74
2023/10/13 15:45:39;;;;;;;18.63;7.78;;;20.80;80.80;;;;;;6306682;22;20019;-71
2023/10/13 15:48:05;;;;;;;19.48;7.55;;;20.70;80.80;;;;;;6306053;22;20089;-76
2023/10/13 15:50:39;;;;;;;16.73;7.82;;;20.80;80.90;;;;;;6250804;22;20023;-75
2023/10/13 15:53:06;;;;;;;17.05;7.53;;;20.80;80.90;;;;;;6279569;22;20019;-75
2023/10/13 15:55:34;;;;;;;15.93;6.82;;;20.70;80.90;;;;;;6304441;22;20478;-77
2023/10/13 15:57:59;;;;;;;18.58;7.85;;;20.70;80.90;;;;;;6254397;22;20030;-70
2023/10/13 16:00:25;;;;;;;17.98;7.22;;;20.70;80.90;;;;;;6277013;22;20019;-70
2023/10/13 16:02:54;;;;;;;20.83;7.30;;;20.80;80.90;;;;;;6276710;22;20019;-69